sensor_id;sensor_type;location;lat;lon;timestamp;pressure;altitude;pressure_sealevel;temperature;humidity
60646;BME280;46462;32.608;-117.032;2023-02-12T00:00:49;99236.69;;;22.77;32.55
60646;BME280;46462;32.608;-117.032;2023-02-12T00:03:20;99234.76;;;23.12;31.95
60646;BME280;46462;32.608;-117.032;2023-02-12T00:05:51;99235.55;;;23.09;32.09
60646;BME280;46462;32.608;-117.032;2023-02-12T00:08:22;99232.20;;;23.00;32.22
60646;BME280;46462;32.608;-117.032;2023-02-12T00:10:52;99235.19;;;22.97;32.21
60646;BME280;46462;32.608;-117.032;2023-02-12T00:13:23;99237.95;;;23.01;32.15
60646;BME280;46462;32.608;-117.032;2023-02-12T00:15:54;99239.18;;;22.88;32.23
60646;BME280;46462;32.608;-117.032;2023-02-12T00:18:25;99237.84;;;22.89;32.32
60646;BME280;46462;32.608;-117.032;2023-02-12T00:20:59;99237.54;;;22.98;32.30
60646;BME280;46462;32.608;-117.032;2023-02-12T00:23:26;99238.27;;;22.93;32.25
60646;BME280;46462;32.608;-117.032;2023-02-12T00:25:57;99233.35;;;22.94;32.20
60646;BME280;46462;32.608;-117.032;2023-02-12T00:28:28;99233.22;;;22.88;32.22
60646;BME280;46462;32.608;-117.032;2023-02-12T00:31:04;99233.45;;;22.92;32.26
60646;BME280;46462;32.608;-117.032;2023-02-12T00:33:30;99234.75;;;22.96;32.29
60646;BME280;46462;32.608;-117.032;2023-02-12T00:36:01;99236.64;;;22.99;32.24
60646;BME280;46462;32.608;-117.032;2023-02-12T00:38:31;99235.06;;;22.96;32.18
60646;BME280;46462;32.608;-117.032;2023-02-12T00:41:02;99236.22;;;22.99;32.22
60646;BME280;46462;32.608;-117.032;2023-02-12T00:43:32;99238.79;;;22.98;32.20
60646;BME280;46462;32.608;-117.032;2023-02-12T00:46:03;99239.45;;;22.99;32.13
60646;BME280;46462;32.608;-117.032;2023-02-12T00:48:34;99239.92;;;23.02;32.04
60646;BME280;46462;32.608;-117.032;2023-02-12T00:51:05;99243.38;;;22.98;32.17
60646;BME280;46462;32.608;-117.032;2023-02-12T00:53:35;99246.84;;;23.07;32.08
60646;BME280;46462;32.608;-117.032;2023-02-12T00:56:06;99247.35;;;23.23;31.74
60646;BME280;46462;32.608;-117.032;2023-02-12T00:58:37;99248.93;;;23.20;31.89
60646;BME280;46462;32.608;-117.032;2023-02-12T01:01:08;99245.93;;;23.12;32.01
60646;BME280;46462;32.608;-117.032;2023-02-12T01:03:39;99249.29;;;23.18;32.03
60646;BME280;46462;32.608;-117.032;2023-02-12T01:06:09;99254.90;;;23.21;32.10
60646;BME280;46462;32.608;-117.032;2023-02-12T01:08:40;99260.34;;;23.24;32.07
60646;BME280;46462;32.608;-117.032;2023-02-12T01:11:12;99262.09;;;23.19;31.91
60646;BME280;46462;32.608;-117.032;2023-02-12T01:13:42;99264.11;;;23.21;32.18
60646;BME280;46462;32.608;-117.032;2023-02-12T01:16:15;99265.40;;;23.25;32.17
60646;BME280;46462;32.608;-117.032;2023-02-12T01:18:44;99263.80;;;23.28;32.09
60646;BME280;46462;32.608;-117.032;2023-02-12T01:21:16;99263.17;;;23.27;32.10
60646;BME280;46462;32.608;-117.032;2023-02-12T01:23:45;99268.77;;;23.33;32.05
60646;BME280;46462;32.608;-117.032;2023-02-12T01:26:16;99267.44;;;23.30;32.13
60646;BME280;46462;32.608;-117.032;2023-02-12T01:28:50;99271.47;;;23.28;32.18
60646;BME280;46462;32.608;-117.032;2023-02-12T01:31:19;99272.84;;;23.33;32.07
60646;BME280;46462;32.608;-117.032;2023-02-12T01:33:49;99272.37;;;23.29;32.17
60646;BME280;46462;32.608;-117.032;2023-02-12T01:36:18;99273.67;;;23.27;32.18
60646;BME280;46462;32.608;-117.032;2023-02-12T01:38:49;99275.60;;;23.29;32.19
60646;BME280;46462;32.608;-117.032;2023-02-12T01:41:22;99272.82;;;23.25;32.41
60646;BME280;46462;32.608;-117.032;2023-02-12T01:46:21;99275.33;;;23.24;32.20
60646;BME280;46462;32.608;-117.032;2023-02-12T01:48:52;99279.87;;;23.27;32.32
60646;BME280;46462;32.608;-117.032;2023-02-12T01:51:24;99279.29;;;23.27;32.36
60646;BME280;46462;32.608;-117.032;2023-02-12T01:53:56;99280.96;;;23.27;32.36
60646;BME280;46462;32.608;-117.032;2023-02-12T01:56:24;99279.91;;;23.26;32.23
60646;BME280;46462;32.608;-117.032;2023-02-12T01:58:58;99278.00;;;23.23;32.33
60646;BME280;46462;32.608;-117.032;2023-02-12T02:01:28;99276.40;;;23.18;32.42
60646;BME280;46462;32.608;-117.032;2023-02-12T02:03:59;99277.25;;;23.15;32.44
60646;BME280;46462;32.608;-117.032;2023-02-12T02:06:30;99276.51;;;23.19;32.47
60646;BME280;46462;32.608;-117.032;2023-02-12T02:08:58;99277.39;;;23.18;32.50
60646;BME280;46462;32.608;-117.032;2023-02-12T02:11:29;99283.91;;;23.16;32.57
60646;BME280;46462;32.608;-117.032;2023-02-12T02:14:00;99286.16;;;23.15;32.64
60646;BME280;46462;32.608;-117.032;2023-02-12T02:16:34;99286.33;;;23.15;32.67
60646;BME280;46462;32.608;-117.032;2023-02-12T02:19:04;99288.88;;;23.15;32.60
60646;BME280;46462;32.608;-117.032;2023-02-12T02:21:45;99290.80;;;23.11;32.65
60646;BME280;46462;32.608;-117.032;2023-02-12T02:24:15;99289.39;;;23.11;32.60
60646;BME280;46462;32.608;-117.032;2023-02-12T02:29:19;99292.90;;;23.07;32.54
60646;BME280;46462;32.608;-117.032;2023-02-12T02:31:40;99291.12;;;23.02;32.55
60646;BME280;46462;32.608;-117.032;2023-02-12T02:34:10;99291.10;;;22.96;32.68
60646;BME280;46462;32.608;-117.032;2023-02-12T02:36:41;99294.31;;;22.97;32.68
60646;BME280;46462;32.608;-117.032;2023-02-12T02:39:11;99291.96;;;22.95;32.65
60646;BME280;46462;32.608;-117.032;2023-02-12T02:41:41;99293.77;;;22.93;32.81
60646;BME280;46462;32.608;-117.032;2023-02-12T02:44:14;99292.40;;;22.87;33.03
60646;BME280;46462;32.608;-117.032;2023-02-12T02:46:44;99292.10;;;22.87;33.07
60646;BME280;46462;32.608;-117.032;2023-02-12T02:49:14;99292.79;;;22.81;33.15
60646;BME280;46462;32.608;-117.032;2023-02-12T02:51:43;99291.28;;;22.73;33.19
60646;BME280;46462;32.608;-117.032;2023-02-12T02:54:14;99291.37;;;22.71;33.39
60646;BME280;46462;32.608;-117.032;2023-02-12T02:56:46;99291.81;;;22.74;33.27
60646;BME280;46462;32.608;-117.032;2023-02-12T02:59:17;99293.98;;;22.75;33.24
60646;BME280;46462;32.608;-117.032;2023-02-12T03:01:48;99296.15;;;22.71;33.23
60646;BME280;46462;32.608;-117.032;2023-02-12T03:04:19;99296.99;;;22.73;33.28
60646;BME280;46462;32.608;-117.032;2023-02-12T03:06:49;99297.18;;;22.72;33.26
60646;BME280;46462;32.608;-117.032;2023-02-12T03:09:19;99298.35;;;22.70;33.24
60646;BME280;46462;32.608;-117.032;2023-02-12T03:11:48;99297.79;;;22.70;33.24
60646;BME280;46462;32.608;-117.032;2023-02-12T03:14:27;99301.16;;;22.76;33.16
60646;BME280;46462;32.608;-117.032;2023-02-12T03:16:55;99304.44;;;22.71;33.25
60646;BME280;46462;32.608;-117.032;2023-02-12T03:19:22;99305.36;;;22.72;33.25
60646;BME280;46462;32.608;-117.032;2023-02-12T03:21:55;99308.29;;;22.71;33.17
60646;BME280;46462;32.608;-117.032;2023-02-12T03:24:25;99312.32;;;22.71;33.28
60646;BME280;46462;32.608;-117.032;2023-02-12T03:26:57;99315.15;;;22.73;33.10
60646;BME280;46462;32.608;-117.032;2023-02-12T03:29:23;99315.51;;;22.62;33.35
60646;BME280;46462;32.608;-117.032;2023-02-12T03:32:01;99318.67;;;22.66;33.24
60646;BME280;46462;32.608;-117.032;2023-02-12T03:34:29;99319.51;;;22.61;33.29
60646;BME280;46462;32.608;-117.032;2023-02-12T03:36:58;99321.21;;;22.72;32.96
60646;BME280;46462;32.608;-117.032;2023-02-12T03:39:31;99325.65;;;22.63;33.33
60646;BME280;46462;32.608;-117.032;2023-02-12T03:42:02;99330.65;;;22.69;33.11
60646;BME280;46462;32.608;-117.032;2023-02-12T03:44:37;99333.37;;;22.74;33.12
60646;BME280;46462;32.608;-117.032;2023-02-12T03:47:03;99335.15;;;22.68;33.18
60646;BME280;46462;32.608;-117.032;2023-02-12T03:49:33;99332.44;;;22.57;33.18
60646;BME280;46462;32.608;-117.032;2023-02-12T03:51:59;99333.85;;;22.55;33.14
60646;BME280;46462;32.608;-117.032;2023-02-12T03:54:31;99335.88;;;22.55;33.15
60646;BME280;46462;32.608;-117.032;2023-02-12T03:57:04;99338.40;;;22.51;33.20
60646;BME280;46462;32.608;-117.032;2023-02-12T03:59:35;99341.30;;;22.43;33.53
60646;BME280;46462;32.608;-117.032;2023-02-12T04:02:03;99338.85;;;22.34;33.65
60646;BME280;46462;32.608;-117.032;2023-02-12T04:04:34;99337.64;;;22.26;33.68
60646;BME280;46462;32.608;-117.032;2023-02-12T04:07:05;99338.62;;;22.35;33.63
60646;BME280;46462;32.608;-117.032;2023-02-12T04:09:35;99339.57;;;22.28;33.69
60646;BME280;46462;32.608;-117.032;2023-02-12T04:12:20;99338.27;;;22.23;33.55
60646;BME280;46462;32.608;-117.032;2023-02-12T04:14:43;99342.14;;;22.33;33.61
60646;BME280;46462;32.608;-117.032;2023-02-12T04:17:13;99345.13;;;22.40;33.31
60646;BME280;46462;32.608;-117.032;2023-02-12T04:19:45;99342.13;;;22.28;33.49
60646;BME280;46462;32.608;-117.032;2023-02-12T04:22:17;99343.80;;;22.29;33.53
60646;BME280;46462;32.608;-117.032;2023-02-12T04:24:48;99347.42;;;22.21;33.51
60646;BME280;46462;32.608;-117.032;2023-02-12T04:27:15;99348.76;;;22.10;33.88
60646;BME280;46462;32.608;-117.032;2023-02-12T04:29:46;99347.05;;;22.10;33.92
60646;BME280;46462;32.608;-117.032;2023-02-12T04:32:15;99353.06;;;22.17;33.72
60646;BME280;46462;32.608;-117.032;2023-02-12T04:34:49;99352.31;;;22.22;33.57
60646;BME280;46462;32.608;-117.032;2023-02-12T04:37:17;99347.92;;;22.23;33.53
60646;BME280;46462;32.608;-117.032;2023-02-12T04:39:45;99352.47;;;22.06;33.94
60646;BME280;46462;32.608;-117.032;2023-02-12T04:42:15;99353.51;;;22.05;33.97
60646;BME280;46462;32.608;-117.032;2023-02-12T04:44:46;99354.50;;;22.05;33.59
60646;BME280;46462;32.608;-117.032;2023-02-12T04:47:17;99355.16;;;22.22;33.61
60646;BME280;46462;32.608;-117.032;2023-02-12T04:49:47;99359.17;;;21.99;34.01
60646;BME280;46462;32.608;-117.032;2023-02-12T04:52:18;99362.78;;;22.04;33.89
60646;BME280;46462;32.608;-117.032;2023-02-12T04:54:49;99367.08;;;22.04;33.69
60646;BME280;46462;32.608;-117.032;2023-02-12T04:57:20;99365.70;;;21.91;33.84
60646;BME280;46462;32.608;-117.032;2023-02-12T04:59:51;99367.04;;;21.94;33.78
60646;BME280;46462;32.608;-117.032;2023-02-12T05:02:21;99366.72;;;21.76;34.22
60646;BME280;46462;32.608;-117.032;2023-02-12T05:04:52;99368.78;;;21.86;34.03
60646;BME280;46462;32.608;-117.032;2023-02-12T05:07:23;99369.73;;;21.84;33.75
60646;BME280;46462;32.608;-117.032;2023-02-12T05:09:54;99367.01;;;21.75;34.16
60646;BME280;46462;32.608;-117.032;2023-02-12T05:12:24;99368.61;;;21.84;34.08
60646;BME280;46462;32.608;-117.032;2023-02-12T05:14:55;99367.98;;;21.86;33.88
60646;BME280;46462;32.608;-117.032;2023-02-12T05:17:25;99365.62;;;21.71;34.11
60646;BME280;46462;32.608;-117.032;2023-02-12T05:19:56;99364.09;;;21.77;33.97
60646;BME280;46462;32.608;-117.032;2023-02-12T05:22:27;99364.33;;;21.62;34.17
60646;BME280;46462;32.608;-117.032;2023-02-12T05:24:58;99358.73;;;21.82;33.94
60646;BME280;46462;32.608;-117.032;2023-02-12T05:27:28;99356.88;;;21.80;34.00
60646;BME280;46462;32.608;-117.032;2023-02-12T05:29:59;99355.94;;;21.73;33.83
60646;BME280;46462;32.608;-117.032;2023-02-12T05:32:30;99355.88;;;21.79;33.89
60646;BME280;46462;32.608;-117.032;2023-02-12T05:35:01;99357.17;;;21.66;34.14
60646;BME280;46462;32.608;-117.032;2023-02-12T05:37:34;99357.69;;;21.58;34.37
60646;BME280;46462;32.608;-117.032;2023-02-12T05:40:03;99358.40;;;21.58;34.19
60646;BME280;46462;32.608;-117.032;2023-02-12T05:42:33;99359.73;;;21.59;34.24
60646;BME280;46462;32.608;-117.032;2023-02-12T05:45:08;99357.15;;;21.51;34.39
60646;BME280;46462;32.608;-117.032;2023-02-12T05:47:37;99356.18;;;21.52;34.36
60646;BME280;46462;32.608;-117.032;2023-02-12T05:50:08;99356.42;;;21.52;34.32
60646;BME280;46462;32.608;-117.032;2023-02-12T05:52:39;99353.96;;;21.48;34.31
60646;BME280;46462;32.608;-117.032;2023-02-12T05:55:09;99351.89;;;21.53;34.03
60646;BME280;46462;32.608;-117.032;2023-02-12T05:57:40;99352.51;;;21.59;34.17
60646;BME280;46462;32.608;-117.032;2023-02-12T06:00:12;99350.99;;;21.58;33.92
60646;BME280;46462;32.608;-117.032;2023-02-12T06:02:42;99352.80;;;21.53;33.96
60646;BME280;46462;32.608;-117.032;2023-02-12T06:05:13;99355.46;;;21.40;34.16
60646;BME280;46462;32.608;-117.032;2023-02-12T06:07:43;99354.10;;;21.33;34.31
60646;BME280;46462;32.608;-117.032;2023-02-12T06:10:14;99351.28;;;21.35;34.46
60646;BME280;46462;32.608;-117.032;2023-02-12T06:12:45;99348.23;;;21.50;33.88
60646;BME280;46462;32.608;-117.032;2023-02-12T06:15:17;99344.01;;;21.37;34.28
60646;BME280;46462;32.608;-117.032;2023-02-12T06:17:47;99344.16;;;21.27;34.40
60646;BME280;46462;32.608;-117.032;2023-02-12T06:20:17;99341.88;;;21.42;33.89
60646;BME280;46462;32.608;-117.032;2023-02-12T06:22:48;99346.62;;;21.40;34.09
60646;BME280;46462;32.608;-117.032;2023-02-12T06:25:19;99348.28;;;21.41;33.84
60646;BME280;46462;32.608;-117.032;2023-02-12T06:27:50;99348.10;;;21.41;33.90
60646;BME280;46462;32.608;-117.032;2023-02-12T06:30:21;99348.39;;;21.34;33.80
60646;BME280;46462;32.608;-117.032;2023-02-12T06:32:51;99350.01;;;21.12;34.52
60646;BME280;46462;32.608;-117.032;2023-02-12T06:35:22;99349.68;;;21.11;34.59
60646;BME280;46462;32.608;-117.032;2023-02-12T06:37:53;99344.08;;;21.35;33.72
60646;BME280;46462;32.608;-117.032;2023-02-12T06:40:24;99344.95;;;21.18;33.81
60646;BME280;46462;32.608;-117.032;2023-02-12T06:42:54;99346.91;;;21.13;34.37
60646;BME280;46462;32.608;-117.032;2023-02-12T06:45:24;99345.56;;;21.19;34.51
60646;BME280;46462;32.608;-117.032;2023-02-12T06:47:55;99342.47;;;21.19;34.37
60646;BME280;46462;32.608;-117.032;2023-02-12T06:50:26;99341.92;;;21.18;34.33
60646;BME280;46462;32.608;-117.032;2023-02-12T06:52:58;99341.78;;;21.34;33.97
60646;BME280;46462;32.608;-117.032;2023-02-12T06:55:27;99338.59;;;21.25;33.79
60646;BME280;46462;32.608;-117.032;2023-02-12T06:57:58;99338.76;;;21.29;33.95
60646;BME280;46462;32.608;-117.032;2023-02-12T07:00:29;99338.35;;;21.07;34.29
60646;BME280;46462;32.608;-117.032;2023-02-12T07:02:59;99332.55;;;21.14;34.01
60646;BME280;46462;32.608;-117.032;2023-02-12T07:05:30;99331.93;;;21.19;34.17
60646;BME280;46462;32.608;-117.032;2023-02-12T07:08:01;99332.42;;;21.25;33.68
60646;BME280;46462;32.608;-117.032;2023-02-12T07:10:32;99326.61;;;21.19;33.71
60646;BME280;46462;32.608;-117.032;2023-02-12T07:13:04;99322.12;;;21.19;33.71
60646;BME280;46462;32.608;-117.032;2023-02-12T07:15:37;99318.95;;;20.92;34.40
60646;BME280;46462;32.608;-117.032;2023-02-12T07:18:04;99321.72;;;20.96;34.03
60646;BME280;46462;32.608;-117.032;2023-02-12T07:20:35;99319.23;;;20.89;34.15
60646;BME280;46462;32.608;-117.032;2023-02-12T07:23:06;99320.02;;;20.86;34.29
60646;BME280;46462;32.608;-117.032;2023-02-12T07:25:36;99312.99;;;20.67;34.73
60646;BME280;46462;32.608;-117.032;2023-02-12T07:28:07;99308.52;;;20.93;33.85
60646;BME280;46462;32.608;-117.032;2023-02-12T07:30:38;99304.27;;;20.84;34.40
60646;BME280;46462;32.608;-117.032;2023-02-12T07:33:09;99305.08;;;20.90;33.91
60646;BME280;46462;32.608;-117.032;2023-02-12T07:35:40;99302.64;;;20.68;34.80
60646;BME280;46462;32.608;-117.032;2023-02-12T07:38:11;99300.63;;;20.86;33.85
60646;BME280;46462;32.608;-117.032;2023-02-12T07:40:41;99296.22;;;20.87;34.14
60646;BME280;46462;32.608;-117.032;2023-02-12T07:43:12;99294.23;;;20.70;34.38
60646;BME280;46462;32.608;-117.032;2023-02-12T07:45:43;99293.14;;;20.87;33.85
60646;BME280;46462;32.608;-117.032;2023-02-12T07:48:13;99287.54;;;20.99;33.68
60646;BME280;46462;32.608;-117.032;2023-02-12T07:50:44;99281.79;;;20.91;33.92
60646;BME280;46462;32.608;-117.032;2023-02-12T07:53:15;99280.62;;;21.10;33.36
60646;BME280;46462;32.608;-117.032;2023-02-12T07:55:46;99277.53;;;21.02;33.55
60646;BME280;46462;32.608;-117.032;2023-02-12T07:58:17;99274.74;;;20.79;33.90
60646;BME280;46462;32.608;-117.032;2023-02-12T08:00:48;99275.71;;;20.71;34.07
60646;BME280;46462;32.608;-117.032;2023-02-12T08:03:18;99272.61;;;20.70;33.99
60646;BME280;46462;32.608;-117.032;2023-02-12T08:05:49;99268.79;;;20.69;34.15
60646;BME280;46462;32.608;-117.032;2023-02-12T08:08:20;99265.56;;;20.55;34.34
60646;BME280;46462;32.608;-117.032;2023-02-12T08:10:51;99263.68;;;20.40;34.66
60646;BME280;46462;32.608;-117.032;2023-02-12T08:13:21;99265.42;;;20.56;34.00
60646;BME280;46462;32.608;-117.032;2023-02-12T08:15:59;99265.76;;;20.55;34.19
60646;BME280;46462;32.608;-117.032;2023-02-12T08:18:23;99260.95;;;20.45;34.29
60646;BME280;46462;32.608;-117.032;2023-02-12T08:20:54;99259.09;;;20.53;34.37
60646;BME280;46462;32.608;-117.032;2023-02-12T08:23:25;99254.70;;;20.30;34.79
60646;BME280;46462;32.608;-117.032;2023-02-12T08:26:04;99256.55;;;20.55;34.22
60646;BME280;46462;32.608;-117.032;2023-02-12T08:28:26;99254.30;;;20.56;33.97
60646;BME280;46462;32.608;-117.032;2023-02-12T08:31:00;99250.15;;;20.39;34.12
60646;BME280;46462;32.608;-117.032;2023-02-12T08:33:28;99249.18;;;20.24;34.63
60646;BME280;46462;32.608;-117.032;2023-02-12T08:36:04;99247.54;;;20.21;34.41
60646;BME280;46462;32.608;-117.032;2023-02-12T08:38:31;99248.57;;;20.37;34.30
60646;BME280;46462;32.608;-117.032;2023-02-12T08:41:01;99250.45;;;20.35;33.92
60646;BME280;46462;32.608;-117.032;2023-02-12T08:43:32;99248.87;;;20.22;34.34
60646;BME280;46462;32.608;-117.032;2023-02-12T08:46:04;99247.57;;;20.32;34.07
60646;BME280;46462;32.608;-117.032;2023-02-12T08:48:33;99243.45;;;20.33;34.17
60646;BME280;46462;32.608;-117.032;2023-02-12T08:51:07;99241.63;;;20.31;34.38
60646;BME280;46462;32.608;-117.032;2023-02-12T08:53:35;99242.32;;;20.20;34.42
60646;BME280;46462;32.608;-117.032;2023-02-12T08:56:06;99246.94;;;20.13;34.24
60646;BME280;46462;32.608;-117.032;2023-02-12T08:58:37;99246.23;;;19.81;34.71
60646;BME280;46462;32.608;-117.032;2023-02-12T09:01:11;99241.68;;;19.97;34.92
60646;BME280;46462;32.608;-117.032;2023-02-12T09:03:38;99239.68;;;20.27;33.99
60646;BME280;46462;32.608;-117.032;2023-02-12T09:06:09;99246.52;;;20.36;33.62
60646;BME280;46462;32.608;-117.032;2023-02-12T09:08:40;99247.15;;;20.09;34.30
60646;BME280;46462;32.608;-117.032;2023-02-12T09:11:13;99245.67;;;19.83;34.45
60646;BME280;46462;32.608;-117.032;2023-02-12T09:13:42;99245.26;;;19.93;34.33
60646;BME280;46462;32.608;-117.032;2023-02-12T09:16:13;99248.81;;;19.86;34.37
60646;BME280;46462;32.608;-117.032;2023-02-12T09:18:43;99248.94;;;20.09;34.23
60646;BME280;46462;32.608;-117.032;2023-02-12T09:21:18;99249.51;;;20.04;34.55
60646;BME280;46462;32.608;-117.032;2023-02-12T09:23:45;99251.59;;;19.99;34.43
60646;BME280;46462;32.608;-117.032;2023-02-12T09:26:17;99255.18;;;20.07;34.09
60646;BME280;46462;32.608;-117.032;2023-02-12T09:28:47;99249.78;;;20.04;33.86
60646;BME280;46462;32.608;-117.032;2023-02-12T09:31:20;99247.43;;;20.02;34.16
60646;BME280;46462;32.608;-117.032;2023-02-12T09:33:49;99246.71;;;20.40;33.28
60646;BME280;46462;32.608;-117.032;2023-02-12T09:36:19;99240.79;;;20.23;33.31
60646;BME280;46462;32.608;-117.032;2023-02-12T09:38:49;99242.65;;;19.98;33.66
60646;BME280;46462;32.608;-117.032;2023-02-12T09:41:35;99243.26;;;19.76;34.38
60646;BME280;46462;32.608;-117.032;2023-02-12T09:43:54;99246.27;;;19.94;34.20
60646;BME280;46462;32.608;-117.032;2023-02-12T09:46:28;99247.61;;;20.08;33.51
60646;BME280;46462;32.608;-117.032;2023-02-12T09:48:59;99243.43;;;20.10;33.72
60646;BME280;46462;32.608;-117.032;2023-02-12T09:51:24;99241.63;;;19.98;33.77
60646;BME280;46462;32.608;-117.032;2023-02-12T09:54:00;99238.37;;;20.00;34.28
60646;BME280;46462;32.608;-117.032;2023-02-12T09:56:26;99231.67;;;20.09;33.65
60646;BME280;46462;32.608;-117.032;2023-02-12T09:58:59;99231.75;;;20.20;33.48
60646;BME280;46462;32.608;-117.032;2023-02-12T10:01:27;99229.94;;;19.90;33.72
60646;BME280;46462;32.608;-117.032;2023-02-12T10:03:57;99226.20;;;19.83;34.20
60646;BME280;46462;32.608;-117.032;2023-02-12T10:06:32;99226.73;;;19.91;33.86
60646;BME280;46462;32.608;-117.032;2023-02-12T10:09:05;99225.77;;;19.72;34.10
60646;BME280;46462;32.608;-117.032;2023-02-12T10:11:41;99221.31;;;19.95;33.72
60646;BME280;46462;32.608;-117.032;2023-02-12T10:14:10;99218.76;;;19.65;34.28
60646;BME280;46462;32.608;-117.032;2023-02-12T10:16:40;99214.42;;;19.54;34.68
60646;BME280;46462;32.608;-117.032;2023-02-12T10:19:11;99213.45;;;19.90;33.67
60646;BME280;46462;32.608;-117.032;2023-02-12T10:21:39;99215.85;;;19.90;33.74
60646;BME280;46462;32.608;-117.032;2023-02-12T10:24:15;99215.33;;;19.93;33.43
60646;BME280;46462;32.608;-117.032;2023-02-12T10:26:36;99210.90;;;20.02;33.40
60646;BME280;46462;32.608;-117.032;2023-02-12T10:29:11;99211.89;;;19.81;33.48
60646;BME280;46462;32.608;-117.032;2023-02-12T10:31:37;99210.15;;;19.81;33.77
60646;BME280;46462;32.608;-117.032;2023-02-12T10:34:14;99208.64;;;19.69;34.26
60646;BME280;46462;32.608;-117.032;2023-02-12T10:36:41;99207.27;;;19.72;33.83
60646;BME280;46462;32.608;-117.032;2023-02-12T10:39:16;99209.99;;;19.77;33.35
60646;BME280;46462;32.608;-117.032;2023-02-12T10:41:39;99210.59;;;19.85;33.38
60646;BME280;46462;32.608;-117.032;2023-02-12T10:44:07;99208.23;;;19.87;33.61
60646;BME280;46462;32.608;-117.032;2023-02-12T10:46:35;99199.76;;;19.95;33.21
60646;BME280;46462;32.608;-117.032;2023-02-12T10:49:09;99195.02;;;19.89;33.06
60646;BME280;46462;32.608;-117.032;2023-02-12T10:51:47;99186.22;;;19.87;33.21
60646;BME280;46462;32.608;-117.032;2023-02-12T10:56:37;99181.20;;;19.52;33.49
60646;BME280;46462;32.608;-117.032;2023-02-12T10:59:20;99180.61;;;19.56;33.61
60646;BME280;46462;32.608;-117.032;2023-02-12T11:01:39;99179.64;;;19.39;33.55
60646;BME280;46462;32.608;-117.032;2023-02-12T11:06:55;99178.56;;;19.46;33.94
60646;BME280;46462;32.608;-117.032;2023-02-12T11:09:20;99178.31;;;19.47;33.35
60646;BME280;46462;32.608;-117.032;2023-02-12T11:11:42;99180.27;;;19.45;33.89
60646;BME280;46462;32.608;-117.032;2023-02-12T11:14:19;99181.67;;;19.27;33.82
60646;BME280;46462;32.608;-117.032;2023-02-12T11:16:50;99183.00;;;19.46;33.73
60646;BME280;46462;32.608;-117.032;2023-02-12T11:19:20;99180.52;;;19.63;33.45
60646;BME280;46462;32.608;-117.032;2023-02-12T11:21:46;99178.93;;;19.35;33.76
60646;BME280;46462;32.608;-117.032;2023-02-12T11:24:21;99179.63;;;19.12;34.19
60646;BME280;46462;32.608;-117.032;2023-02-12T11:26:46;99179.98;;;19.31;33.97
60646;BME280;46462;32.608;-117.032;2023-02-12T11:29:19;99180.40;;;19.49;33.65
60646;BME280;46462;32.608;-117.032;2023-02-12T11:31:59;99178.33;;;19.10;34.42
60646;BME280;46462;32.608;-117.032;2023-02-12T11:34:18;99176.30;;;19.22;34.24
60646;BME280;46462;32.608;-117.032;2023-02-12T11:36:49;99171.45;;;19.27;33.79
60646;BME280;46462;32.608;-117.032;2023-02-12T11:39:21;99172.46;;;19.08;34.09
60646;BME280;46462;32.608;-117.032;2023-02-12T11:41:52;99170.31;;;19.11;34.12
60646;BME280;46462;32.608;-117.032;2023-02-12T11:44:23;99173.80;;;18.94;34.00
60646;BME280;46462;32.608;-117.032;2023-02-12T11:46:55;99169.65;;;19.15;34.07
60646;BME280;46462;32.608;-117.032;2023-02-12T11:49:26;99164.40;;;19.22;33.67
60646;BME280;46462;32.608;-117.032;2023-02-12T11:51:56;99161.87;;;19.31;33.50
60646;BME280;46462;32.608;-117.032;2023-02-12T11:54:25;99158.30;;;19.21;33.48
60646;BME280;46462;32.608;-117.032;2023-02-12T11:56:53;99158.40;;;19.11;34.27
60646;BME280;46462;32.608;-117.032;2023-02-12T11:59:31;99157.10;;;19.24;33.56
60646;BME280;46462;32.608;-117.032;2023-02-12T12:01:54;99154.15;;;19.14;33.94
60646;BME280;46462;32.608;-117.032;2023-02-12T12:04:23;99152.90;;;19.46;33.37
60646;BME280;46462;32.608;-117.032;2023-02-12T12:06:57;99152.73;;;19.10;33.67
60646;BME280;46462;32.608;-117.032;2023-02-12T12:09:31;99152.34;;;18.95;33.75
60646;BME280;46462;32.608;-117.032;2023-02-12T12:11:59;99149.49;;;19.02;33.76
60646;BME280;46462;32.608;-117.032;2023-02-12T12:14:26;99146.59;;;18.95;33.64
60646;BME280;46462;32.608;-117.032;2023-02-12T12:16:57;99150.53;;;18.79;34.27
60646;BME280;46462;32.608;-117.032;2023-02-12T12:19:27;99148.34;;;18.88;34.08
60646;BME280;46462;32.608;-117.032;2023-02-12T12:21:59;99149.15;;;18.94;33.81
60646;BME280;46462;32.608;-117.032;2023-02-12T12:24:28;99151.98;;;19.15;33.51
60646;BME280;46462;32.608;-117.032;2023-02-12T12:26:59;99154.22;;;19.04;33.56
60646;BME280;46462;32.608;-117.032;2023-02-12T12:29:28;99157.42;;;18.96;33.60
60646;BME280;46462;32.608;-117.032;2023-02-12T12:31:57;99155.43;;;18.98;33.95
60646;BME280;46462;32.608;-117.032;2023-02-12T12:34:26;99151.39;;;19.12;33.71
60646;BME280;46462;32.608;-117.032;2023-02-12T12:37:02;99148.89;;;19.05;33.49
60646;BME280;46462;32.608;-117.032;2023-02-12T12:39:30;99144.78;;;18.97;33.77
60646;BME280;46462;32.608;-117.032;2023-02-12T12:42:10;99140.11;;;18.70;34.04
60646;BME280;46462;32.608;-117.032;2023-02-12T12:44:33;99139.10;;;19.04;33.19
60646;BME280;46462;32.608;-117.032;2023-02-12T12:47:04;99135.75;;;18.91;33.39
60646;BME280;46462;32.608;-117.032;2023-02-12T12:49:35;99133.98;;;18.66;33.91
60646;BME280;46462;32.608;-117.032;2023-02-12T12:52:09;99128.92;;;18.98;33.36
60646;BME280;46462;32.608;-117.032;2023-02-12T12:54:36;99124.14;;;18.84;33.35
60646;BME280;46462;32.608;-117.032;2023-02-12T12:57:03;99121.17;;;18.74;33.92